Terminal Aerodrome Forecast
Issued by NWS

Home | Current Version | Previous Version | Text Only | Print | Product List | Glossary On
Versions: 1 2 3 4 5 6 7 8 9 10 11
879
FTUS42 TJSJ 082347
TAFKPK
TAF
TKPK 082347Z 0900/0924 09010KT P6SM SCT018
     FM091800 09013KT P6SM SCT020 SCT030 SCT050
      AMD NOT SKED 0902/0911=

USA.gov is the U.S. government's official web portal to all federal, state and local government web resources and services.